METAR Data
IDs: Format: Raw Decoded Include TAF

Data at: 0623 UTC 01 Aug 2021

EDNY 010550Z 33003KT 300V360 5000 -RA FEW006 BKN035 OVC054 14/13 Q1011